Terminal Aerodrome Forecast
Issued by NWS Corpus Christi, TX

Home | Current Version | Previous Version | Text Only | Print | Product List | Glossary On
Versions: 1 2 3 4 5 6 7 8 9 10 11 12 13 14 15 16 17 18 19 20
000
FTUS44 KCRP 011130
TAFCRP
TAF
KCRP 011130Z 0112/0212 14008KT P6SM VCSH SCT025 BKN150
     FM011600 13010KT P6SM VCTS SCT035CB BKN200
      TEMPO 0117/0121 VRB15G25KT 4SM TSRA BR BKN035CB
     FM012100 13012KT P6SM FEW020 BKN100
     FM020000 12006KT P6SM FEW022 BKN250=

USA.gov is the U.S. government's official web portal to all federal, state and local government web resources and services.